This is the latest recevied weather packets stored in our database for station/object RK6MF-10. If no packets are shown the sender has not sent any weather packets the latest 10 day(s).
| Time | Temp. | Humidity | Pressure | Rain* | Wind** | Luminosity | Snow |
|---|---|---|---|---|---|---|---|
| 1787925011 | 22.78° C | 50% | 1010.4 hPa | - | - | - | - |
| 1787924111 | 22.22° C | 51% | 1010.4 hPa | - | - | - | - |
| 1787923214 | 22.22° C | 50% | 1010.5 hPa | - | - | - | - |
| 1787922314 | 22.78° C | 47% | 1010.6 hPa | - | - | - | - |
| 1787921414 | 23.33° C | 45% | 1010.5 hPa | - | - | - | - |
| 1787920513 | 23.89° C | 44% | 1010.4 hPa | - | - | - | - |
| 1787919613 | 23.89° C | 47% | 1010.4 hPa | - | - | - | - |
| 1787918713 | 23.33° C | 47% | 1010.5 hPa | - | - | - | - |
| 1787917813 | 23.33° C | 51% | 1010.5 hPa | - | - | - | - |
| 1787916913 | 22.78° C | 51% | 1010.3 hPa | - | - | - | - |
| 1787916013 | 22.78° C | 53% | 1010.4 hPa | - | - | - | - |
| 1787915113 | 23.33° C | 53% | 1010.2 hPa | - | - | - | - |
| 1787914213 | 22.78° C | 52% | 1010.2 hPa | - | - | - | - |
| 1787913313 | 22.78° C | 51% | 1010 hPa | - | - | - | - |
| 1787912413 | 25° C | 43% | 1010 hPa | - | - | - | - |
| 1787911512 | 26.11° C | 38% | 1009.7 hPa | - | - | - | - |
| 1787910612 | 27.78° C | 35% | 1009.6 hPa | - | - | - | - |
| 1787909712 | 30° C | 31% | 1009.1 hPa | - | - | - | - |
| 1787908812 | 28.89° C | 33% | 1008.9 hPa | - | - | - | - |
| 1787907912 | 26.11° C | 36% | 1009 hPa | - | - | - | - |
| 1787907012 | 26.11° C | 37% | 1008.9 hPa | - | - | - | - |
| 1787906112 | 28.33° C | 34% | 1009.1 hPa | - | - | - | - |
| 1787905212 | 27.78° C | 33% | 1009 hPa | - | - | - | - |
| 1787904312 | 26.67° C | 35% | 1008.9 hPa | - | - | - | - |
| 1787903411 | 26.11° C | 37% | 1009 hPa | - | - | - | - |
* Rain since midnight (hover to see other rain measurements)
** Current wind speed in m/s (hover to see current wind gust speed)